sensor_id;sensor_type;location;lat;lon;timestamp;P1;durP1;ratioP1;P2;durP2;ratioP2
8060;SDS011;4073;42.626;25.386;2022-07-24T00:01:45;10.93;;;8.67;;
8060;SDS011;4073;42.626;25.386;2022-07-24T00:04:10;13.93;;;9.13;;
8060;SDS011;4073;42.626;25.386;2022-07-24T00:06:36;14.73;;;9.63;;
8060;SDS011;4073;42.626;25.386;2022-07-24T00:09:02;15.23;;;11.10;;
8060;SDS011;4073;42.626;25.386;2022-07-24T00:11:28;18.37;;;10.73;;
8060;SDS011;4073;42.626;25.386;2022-07-24T00:13:53;15.77;;;11.83;;
8060;SDS011;4073;42.626;25.386;2022-07-24T00:16:19;14.87;;;11.07;;
8060;SDS011;4073;42.626;25.386;2022-07-24T00:18:44;23.60;;;13.57;;
8060;SDS011;4073;42.626;25.386;2022-07-24T00:21:10;23.40;;;15.30;;
8060;SDS011;4073;42.626;25.386;2022-07-24T00:23:35;25.17;;;14.63;;
8060;SDS011;4073;42.626;25.386;2022-07-24T00:26:01;19.63;;;13.13;;
8060;SDS011;4073;42.626;25.386;2022-07-24T00:28:26;21.97;;;13.03;;
8060;SDS011;4073;42.626;25.386;2022-07-24T00:30:52;17.77;;;12.07;;
8060;SDS011;4073;42.626;25.386;2022-07-24T00:33:17;27.67;;;13.37;;
8060;SDS011;4073;42.626;25.386;2022-07-24T00:35:42;17.07;;;12.87;;
8060;SDS011;4073;42.626;25.386;2022-07-24T00:38:08;19.87;;;12.17;;
8060;SDS011;4073;42.626;25.386;2022-07-24T00:40:35;13.83;;;10.40;;
8060;SDS011;4073;42.626;25.386;2022-07-24T00:43:02;19.90;;;12.80;;
8060;SDS011;4073;42.626;25.386;2022-07-24T00:45:28;25.60;;;13.40;;
8060;SDS011;4073;42.626;25.386;2022-07-24T00:47:53;21.57;;;13.33;;
8060;SDS011;4073;42.626;25.386;2022-07-24T00:50:19;21.93;;;13.13;;
8060;SDS011;4073;42.626;25.386;2022-07-24T00:52:44;15.67;;;11.43;;
8060;SDS011;4073;42.626;25.386;2022-07-24T00:55:10;17.77;;;10.80;;
8060;SDS011;4073;42.626;25.386;2022-07-24T00:57:37;15.97;;;9.53;;
8060;SDS011;4073;42.626;25.386;2022-07-24T01:00:04;12.93;;;8.57;;
8060;SDS011;4073;42.626;25.386;2022-07-24T01:02:31;14.43;;;10.20;;
8060;SDS011;4073;42.626;25.386;2022-07-24T01:04:57;15.57;;;10.77;;
8060;SDS011;4073;42.626;25.386;2022-07-24T01:07:22;12.07;;;9.47;;
8060;SDS011;4073;42.626;25.386;2022-07-24T01:09:48;11.90;;;8.23;;
8060;SDS011;4073;42.626;25.386;2022-07-24T01:12:14;10.77;;;7.83;;
8060;SDS011;4073;42.626;25.386;2022-07-24T01:14:40;9.37;;;7.50;;
8060;SDS011;4073;42.626;25.386;2022-07-24T01:17:06;11.60;;;7.03;;
8060;SDS011;4073;42.626;25.386;2022-07-24T01:19:31;13.60;;;6.90;;
8060;SDS011;4073;42.626;25.386;2022-07-24T01:21:57;7.67;;;6.40;;
8060;SDS011;4073;42.626;25.386;2022-07-24T01:24:22;9.33;;;6.73;;
8060;SDS011;4073;42.626;25.386;2022-07-24T01:26:48;8.77;;;6.60;;
8060;SDS011;4073;42.626;25.386;2022-07-24T01:29:14;7.90;;;6.20;;
8060;SDS011;4073;42.626;25.386;2022-07-24T01:31:40;10.37;;;6.47;;
8060;SDS011;4073;42.626;25.386;2022-07-24T01:34:06;8.70;;;6.30;;
8060;SDS011;4073;42.626;25.386;2022-07-24T01:36:31;7.83;;;6.27;;
8060;SDS011;4073;42.626;25.386;2022-07-24T01:38:58;7.20;;;6.30;;
8060;SDS011;4073;42.626;25.386;2022-07-24T01:41:23;11.77;;;7.07;;
8060;SDS011;4073;42.626;25.386;2022-07-24T01:43:49;11.20;;;6.40;;
8060;SDS011;4073;42.626;25.386;2022-07-24T01:46:14;7.40;;;6.47;;
8060;SDS011;4073;42.626;25.386;2022-07-24T01:48:41;7.33;;;6.30;;
8060;SDS011;4073;42.626;25.386;2022-07-24T01:51:08;6.67;;;5.93;;
8060;SDS011;4073;42.626;25.386;2022-07-24T01:53:34;8.47;;;5.93;;
8060;SDS011;4073;42.626;25.386;2022-07-24T01:55:59;9.53;;;7.17;;
8060;SDS011;4073;42.626;25.386;2022-07-24T01:58:25;8.80;;;7.20;;
8060;SDS011;4073;42.626;25.386;2022-07-24T02:00:51;8.70;;;7.00;;
8060;SDS011;4073;42.626;25.386;2022-07-24T02:03:17;8.73;;;6.27;;
8060;SDS011;4073;42.626;25.386;2022-07-24T02:05:43;8.00;;;7.00;;
8060;SDS011;4073;42.626;25.386;2022-07-24T02:08:08;10.30;;;7.03;;
8060;SDS011;4073;42.626;25.386;2022-07-24T02:10:34;10.00;;;6.10;;
8060;SDS011;4073;42.626;25.386;2022-07-24T02:13:00;9.37;;;8.27;;
8060;SDS011;4073;42.626;25.386;2022-07-24T02:15:25;14.33;;;9.27;;
8060;SDS011;4073;42.626;25.386;2022-07-24T02:17:52;15.40;;;8.90;;
8060;SDS011;4073;42.626;25.386;2022-07-24T02:20:19;13.17;;;9.27;;
8060;SDS011;4073;42.626;25.386;2022-07-24T02:22:45;17.57;;;11.07;;
8060;SDS011;4073;42.626;25.386;2022-07-24T02:25:12;20.23;;;11.53;;
8060;SDS011;4073;42.626;25.386;2022-07-24T02:27:38;17.20;;;10.50;;
8060;SDS011;4073;42.626;25.386;2022-07-24T02:30:05;16.97;;;11.03;;
8060;SDS011;4073;42.626;25.386;2022-07-24T02:32:33;17.10;;;11.07;;
8060;SDS011;4073;42.626;25.386;2022-07-24T02:34:58;11.93;;;8.43;;
8060;SDS011;4073;42.626;25.386;2022-07-24T02:37:24;10.03;;;7.67;;
8060;SDS011;4073;42.626;25.386;2022-07-24T02:39:49;9.23;;;7.03;;
8060;SDS011;4073;42.626;25.386;2022-07-24T02:42:15;8.47;;;7.50;;
8060;SDS011;4073;42.626;25.386;2022-07-24T02:44:40;10.60;;;7.43;;
8060;SDS011;4073;42.626;25.386;2022-07-24T02:47:06;11.10;;;7.40;;
8060;SDS011;4073;42.626;25.386;2022-07-24T02:49:31;10.43;;;7.40;;
8060;SDS011;4073;42.626;25.386;2022-07-24T02:51:56;9.07;;;7.50;;
8060;SDS011;4073;42.626;25.386;2022-07-24T02:54:22;10.30;;;7.57;;
8060;SDS011;4073;42.626;25.386;2022-07-24T02:56:47;9.13;;;7.37;;
8060;SDS011;4073;42.626;25.386;2022-07-24T02:59:14;11.10;;;7.43;;
8060;SDS011;4073;42.626;25.386;2022-07-24T03:01:39;12.33;;;7.83;;
8060;SDS011;4073;42.626;25.386;2022-07-24T03:04:05;7.63;;;6.60;;
8060;SDS011;4073;42.626;25.386;2022-07-24T03:06:30;9.50;;;6.83;;
8060;SDS011;4073;42.626;25.386;2022-07-24T03:08:56;11.67;;;7.50;;
8060;SDS011;4073;42.626;25.386;2022-07-24T03:11:21;8.30;;;6.50;;
8060;SDS011;4073;42.626;25.386;2022-07-24T03:13:47;10.43;;;7.57;;
8060;SDS011;4073;42.626;25.386;2022-07-24T03:16:12;9.97;;;7.53;;
8060;SDS011;4073;42.626;25.386;2022-07-24T03:18:38;9.00;;;8.00;;
8060;SDS011;4073;42.626;25.386;2022-07-24T03:21:03;9.30;;;7.70;;
8060;SDS011;4073;42.626;25.386;2022-07-24T03:23:29;10.70;;;8.87;;
8060;SDS011;4073;42.626;25.386;2022-07-24T03:25:54;12.70;;;8.67;;
8060;SDS011;4073;42.626;25.386;2022-07-24T03:28:20;10.57;;;9.43;;
8060;SDS011;4073;42.626;25.386;2022-07-24T03:30:45;12.20;;;9.13;;
8060;SDS011;4073;42.626;25.386;2022-07-24T03:33:11;15.17;;;10.70;;
8060;SDS011;4073;42.626;25.386;2022-07-24T03:35:37;16.23;;;10.60;;
8060;SDS011;4073;42.626;25.386;2022-07-24T03:38:02;13.67;;;10.97;;
8060;SDS011;4073;42.626;25.386;2022-07-24T03:40:28;15.30;;;10.70;;
8060;SDS011;4073;42.626;25.386;2022-07-24T03:42:53;13.27;;;9.20;;
8060;SDS011;4073;42.626;25.386;2022-07-24T03:45:19;14.70;;;9.97;;
8060;SDS011;4073;42.626;25.386;2022-07-24T03:47:44;15.97;;;10.47;;
8060;SDS011;4073;42.626;25.386;2022-07-24T03:50:10;15.00;;;10.57;;
8060;SDS011;4073;42.626;25.386;2022-07-24T03:52:35;16.57;;;10.57;;
8060;SDS011;4073;42.626;25.386;2022-07-24T03:55:01;12.93;;;9.90;;
8060;SDS011;4073;42.626;25.386;2022-07-24T03:57:26;13.27;;;9.37;;
8060;SDS011;4073;42.626;25.386;2022-07-24T03:59:52;11.93;;;9.90;;
8060;SDS011;4073;42.626;25.386;2022-07-24T04:02:17;13.13;;;9.53;;
8060;SDS011;4073;42.626;25.386;2022-07-24T04:04:43;13.53;;;9.03;;
8060;SDS011;4073;42.626;25.386;2022-07-24T04:07:08;12.23;;;8.10;;
8060;SDS011;4073;42.626;25.386;2022-07-24T04:09:33;10.77;;;9.20;;
8060;SDS011;4073;42.626;25.386;2022-07-24T04:11:59;11.27;;;8.13;;
8060;SDS011;4073;42.626;25.386;2022-07-24T04:14:25;12.47;;;10.03;;
8060;SDS011;4073;42.626;25.386;2022-07-24T04:16:51;13.73;;;10.93;;
8060;SDS011;4073;42.626;25.386;2022-07-24T04:19:16;17.90;;;11.83;;
8060;SDS011;4073;42.626;25.386;2022-07-24T04:21:42;17.03;;;11.70;;
8060;SDS011;4073;42.626;25.386;2022-07-24T04:24:07;14.47;;;11.00;;
8060;SDS011;4073;42.626;25.386;2022-07-24T04:26:33;11.47;;;9.00;;
8060;SDS011;4073;42.626;25.386;2022-07-24T04:28:58;9.40;;;8.37;;
8060;SDS011;4073;42.626;25.386;2022-07-24T04:31:24;12.43;;;8.20;;
8060;SDS011;4073;42.626;25.386;2022-07-24T04:33:49;12.30;;;8.03;;
8060;SDS011;4073;42.626;25.386;2022-07-24T04:36:14;10.67;;;7.57;;
8060;SDS011;4073;42.626;25.386;2022-07-24T04:38:40;13.33;;;8.17;;
8060;SDS011;4073;42.626;25.386;2022-07-24T04:41:05;10.47;;;7.90;;
8060;SDS011;4073;42.626;25.386;2022-07-24T04:43:31;8.00;;;7.20;;
8060;SDS011;4073;42.626;25.386;2022-07-24T04:45:56;7.67;;;6.83;;
8060;SDS011;4073;42.626;25.386;2022-07-24T04:48:22;8.37;;;7.43;;
8060;SDS011;4073;42.626;25.386;2022-07-24T04:50:47;8.70;;;7.37;;
8060;SDS011;4073;42.626;25.386;2022-07-24T04:53:13;8.67;;;6.17;;
8060;SDS011;4073;42.626;25.386;2022-07-24T04:55:38;9.63;;;7.10;;
8060;SDS011;4073;42.626;25.386;2022-07-24T04:58:03;7.90;;;7.10;;
8060;SDS011;4073;42.626;25.386;2022-07-24T05:00:29;8.07;;;7.27;;
8060;SDS011;4073;42.626;25.386;2022-07-24T05:02:55;9.00;;;7.30;;
8060;SDS011;4073;42.626;25.386;2022-07-24T05:05:20;6.77;;;6.07;;
8060;SDS011;4073;42.626;25.386;2022-07-24T05:07:46;7.13;;;6.47;;
8060;SDS011;4073;42.626;25.386;2022-07-24T05:10:11;9.67;;;6.50;;
8060;SDS011;4073;42.626;25.386;2022-07-24T05:12:37;8.13;;;7.20;;
8060;SDS011;4073;42.626;25.386;2022-07-24T05:15:03;6.93;;;6.27;;
8060;SDS011;4073;42.626;25.386;2022-07-24T05:17:29;7.80;;;7.10;;
8060;SDS011;4073;42.626;25.386;2022-07-24T05:19:55;7.40;;;6.57;;
8060;SDS011;4073;42.626;25.386;2022-07-24T05:22:20;10.20;;;7.40;;
8060;SDS011;4073;42.626;25.386;2022-07-24T05:24:45;7.57;;;6.87;;
8060;SDS011;4073;42.626;25.386;2022-07-24T05:27:11;7.10;;;6.40;;
8060;SDS011;4073;42.626;25.386;2022-07-24T05:29:36;7.63;;;6.87;;
8060;SDS011;4073;42.626;25.386;2022-07-24T05:32:02;7.73;;;6.93;;
8060;SDS011;4073;42.626;25.386;2022-07-24T05:34:27;10.33;;;7.40;;
8060;SDS011;4073;42.626;25.386;2022-07-24T05:36:54;7.37;;;6.73;;
8060;SDS011;4073;42.626;25.386;2022-07-24T05:39:20;7.77;;;6.80;;
8060;SDS011;4073;42.626;25.386;2022-07-24T05:41:45;11.27;;;6.97;;
8060;SDS011;4073;42.626;25.386;2022-07-24T05:44:10;8.10;;;7.07;;
8060;SDS011;4073;42.626;25.386;2022-07-24T05:46:36;9.90;;;6.33;;
8060;SDS011;4073;42.626;25.386;2022-07-24T05:49:01;10.67;;;7.70;;
8060;SDS011;4073;42.626;25.386;2022-07-24T05:51:27;11.07;;;6.90;;
8060;SDS011;4073;42.626;25.386;2022-07-24T05:53:52;8.07;;;6.60;;
8060;SDS011;4073;42.626;25.386;2022-07-24T05:56:18;7.70;;;6.97;;
8060;SDS011;4073;42.626;25.386;2022-07-24T05:58:43;8.10;;;6.27;;
8060;SDS011;4073;42.626;25.386;2022-07-24T06:01:09;7.30;;;5.80;;
8060;SDS011;4073;42.626;25.386;2022-07-24T06:03:34;7.67;;;6.00;;
8060;SDS011;4073;42.626;25.386;2022-07-24T06:06:01;7.60;;;6.20;;
8060;SDS011;4073;42.626;25.386;2022-07-24T06:08:28;6.93;;;5.97;;
8060;SDS011;4073;42.626;25.386;2022-07-24T06:10:53;6.07;;;5.47;;
8060;SDS011;4073;42.626;25.386;2022-07-24T06:13:19;7.93;;;5.73;;
8060;SDS011;4073;42.626;25.386;2022-07-24T06:15:44;7.70;;;5.93;;
8060;SDS011;4073;42.626;25.386;2022-07-24T06:18:10;7.30;;;5.97;;
8060;SDS011;4073;42.626;25.386;2022-07-24T06:20:35;9.63;;;6.30;;
8060;SDS011;4073;42.626;25.386;2022-07-24T06:23:00;6.17;;;5.57;;
8060;SDS011;4073;42.626;25.386;2022-07-24T06:25:26;9.43;;;6.63;;
8060;SDS011;4073;42.626;25.386;2022-07-24T06:27:51;7.53;;;6.07;;
8060;SDS011;4073;42.626;25.386;2022-07-24T06:30:23;7.87;;;6.03;;
8060;SDS011;4073;42.626;25.386;2022-07-24T06:32:51;9.67;;;6.07;;
8060;SDS011;4073;42.626;25.386;2022-07-24T06:35:19;12.47;;;6.13;;
8060;SDS011;4073;42.626;25.386;2022-07-24T06:37:44;7.93;;;5.87;;
8060;SDS011;4073;42.626;25.386;2022-07-24T06:40:10;6.00;;;5.37;;
8060;SDS011;4073;42.626;25.386;2022-07-24T06:42:36;7.80;;;6.07;;
8060;SDS011;4073;42.626;25.386;2022-07-24T06:45:02;6.87;;;5.67;;
8060;SDS011;4073;42.626;25.386;2022-07-24T06:47:28;9.13;;;6.07;;
8060;SDS011;4073;42.626;25.386;2022-07-24T06:49:54;6.47;;;5.43;;
8060;SDS011;4073;42.626;25.386;2022-07-24T06:52:19;6.57;;;5.47;;
8060;SDS011;4073;42.626;25.386;2022-07-24T06:54:45;7.27;;;5.20;;
8060;SDS011;4073;42.626;25.386;2022-07-24T06:57:11;9.67;;;5.43;;
8060;SDS011;4073;42.626;25.386;2022-07-24T06:59:36;8.57;;;5.60;;
8060;SDS011;4073;42.626;25.386;2022-07-24T07:02:02;11.80;;;5.70;;
8060;SDS011;4073;42.626;25.386;2022-07-24T07:04:27;6.30;;;5.63;;
8060;SDS011;4073;42.626;25.386;2022-07-24T07:06:53;6.00;;;5.50;;
8060;SDS011;4073;42.626;25.386;2022-07-24T07:09:19;6.53;;;5.27;;
8060;SDS011;4073;42.626;25.386;2022-07-24T07:11:44;5.50;;;5.00;;
8060;SDS011;4073;42.626;25.386;2022-07-24T07:14:10;8.50;;;5.77;;
8060;SDS011;4073;42.626;25.386;2022-07-24T07:16:35;6.23;;;5.50;;
8060;SDS011;4073;42.626;25.386;2022-07-24T07:19:01;8.80;;;6.07;;
8060;SDS011;4073;42.626;25.386;2022-07-24T07:21:26;10.13;;;5.83;;
8060;SDS011;4073;42.626;25.386;2022-07-24T07:23:51;10.10;;;6.37;;
8060;SDS011;4073;42.626;25.386;2022-07-24T07:26:18;7.87;;;5.50;;
8060;SDS011;4073;42.626;25.386;2022-07-24T07:28:44;8.97;;;5.80;;
8060;SDS011;4073;42.626;25.386;2022-07-24T07:31:09;11.63;;;5.83;;
8060;SDS011;4073;42.626;25.386;2022-07-24T07:33:34;7.40;;;5.60;;
8060;SDS011;4073;42.626;25.386;2022-07-24T07:36:00;8.23;;;5.87;;
8060;SDS011;4073;42.626;25.386;2022-07-24T07:38:25;6.87;;;6.17;;
8060;SDS011;4073;42.626;25.386;2022-07-24T07:40:51;8.43;;;5.70;;
8060;SDS011;4073;42.626;25.386;2022-07-24T07:43:16;9.23;;;6.43;;
8060;SDS011;4073;42.626;25.386;2022-07-24T07:45:42;12.13;;;6.80;;
8060;SDS011;4073;42.626;25.386;2022-07-24T07:48:07;9.50;;;6.07;;
8060;SDS011;4073;42.626;25.386;2022-07-24T07:50:33;7.97;;;6.17;;
8060;SDS011;4073;42.626;25.386;2022-07-24T07:52:58;8.67;;;5.67;;
8060;SDS011;4073;42.626;25.386;2022-07-24T07:55:23;10.73;;;6.77;;
8060;SDS011;4073;42.626;25.386;2022-07-24T07:57:49;8.23;;;6.50;;
8060;SDS011;4073;42.626;25.386;2022-07-24T08:00:15;8.40;;;6.20;;
8060;SDS011;4073;42.626;25.386;2022-07-24T08:02:41;6.97;;;6.27;;
8060;SDS011;4073;42.626;25.386;2022-07-24T08:05:06;8.97;;;6.03;;
8060;SDS011;4073;42.626;25.386;2022-07-24T08:07:32;10.10;;;6.07;;
8060;SDS011;4073;42.626;25.386;2022-07-24T08:09:58;9.50;;;6.37;;
8060;SDS011;4073;42.626;25.386;2022-07-24T08:12:23;19.73;;;10.47;;
8060;SDS011;4073;42.626;25.386;2022-07-24T08:14:49;7.77;;;6.80;;
8060;SDS011;4073;42.626;25.386;2022-07-24T08:17:14;9.33;;;6.83;;
8060;SDS011;4073;42.626;25.386;2022-07-24T08:19:40;10.97;;;7.60;;
8060;SDS011;4073;42.626;25.386;2022-07-24T08:22:06;9.63;;;6.90;;
8060;SDS011;4073;42.626;25.386;2022-07-24T08:24:32;7.00;;;5.90;;
8060;SDS011;4073;42.626;25.386;2022-07-24T08:26:58;7.50;;;6.00;;
8060;SDS011;4073;42.626;25.386;2022-07-24T08:29:24;7.80;;;6.03;;
8060;SDS011;4073;42.626;25.386;2022-07-24T08:31:50;8.53;;;5.93;;
8060;SDS011;4073;42.626;25.386;2022-07-24T08:34:16;12.60;;;6.87;;
8060;SDS011;4073;42.626;25.386;2022-07-24T08:36:42;7.40;;;6.10;;
8060;SDS011;4073;42.626;25.386;2022-07-24T08:39:10;8.23;;;6.20;;
8060;SDS011;4073;42.626;25.386;2022-07-24T08:41:37;9.03;;;7.60;;
8060;SDS011;4073;42.626;25.386;2022-07-24T08:44:03;7.10;;;6.40;;
8060;SDS011;4073;42.626;25.386;2022-07-24T08:46:30;8.53;;;5.70;;
8060;SDS011;4073;42.626;25.386;2022-07-24T08:48:57;6.23;;;5.73;;
8060;SDS011;4073;42.626;25.386;2022-07-24T08:51:23;8.13;;;6.37;;
8060;SDS011;4073;42.626;25.386;2022-07-24T08:54:00;8.07;;;5.83;;
8060;SDS011;4073;42.626;25.386;2022-07-24T08:56:27;7.97;;;6.10;;
8060;SDS011;4073;42.626;25.386;2022-07-24T08:58:53;7.23;;;6.00;;
8060;SDS011;4073;42.626;25.386;2022-07-24T09:01:18;7.93;;;6.10;;
8060;SDS011;4073;42.626;25.386;2022-07-24T09:03:45;7.53;;;6.73;;
8060;SDS011;4073;42.626;25.386;2022-07-24T09:06:12;10.83;;;6.60;;
8060;SDS011;4073;42.626;25.386;2022-07-24T09:08:39;7.93;;;6.57;;
8060;SDS011;4073;42.626;25.386;2022-07-24T09:11:06;8.10;;;6.40;;
8060;SDS011;4073;42.626;25.386;2022-07-24T09:13:34;8.83;;;6.73;;
8060;SDS011;4073;42.626;25.386;2022-07-24T09:16:22;7.60;;;5.80;;
8060;SDS011;4073;42.626;25.386;2022-07-24T09:19:11;7.53;;;5.80;;
8060;SDS011;4073;42.626;25.386;2022-07-24T09:21:37;11.33;;;6.40;;
8060;SDS011;4073;42.626;25.386;2022-07-24T09:24:17;7.27;;;6.50;;
8060;SDS011;4073;42.626;25.386;2022-07-24T09:26:49;11.13;;;7.77;;
8060;SDS011;4073;42.626;25.386;2022-07-24T09:29:17;11.17;;;7.93;;
8060;SDS011;4073;42.626;25.386;2022-07-24T09:34:27;8.87;;;6.50;;
8060;SDS011;4073;42.626;25.386;2022-07-24T09:39:27;8.47;;;5.57;;
8060;SDS011;4073;42.626;25.386;2022-07-24T09:41:57;7.03;;;5.73;;
8060;SDS011;4073;42.626;25.386;2022-07-24T09:44:23;8.60;;;6.63;;
8060;SDS011;4073;42.626;25.386;2022-07-24T09:46:57;9.30;;;7.70;;
8060;SDS011;4073;42.626;25.386;2022-07-24T09:49:25;9.63;;;5.83;;
8060;SDS011;4073;42.626;25.386;2022-07-24T09:54:47;10.67;;;7.33;;
8060;SDS011;4073;42.626;25.386;2022-07-24T09:59:55;7.43;;;6.40;;
8060;SDS011;4073;42.626;25.386;2022-07-24T10:02:25;9.77;;;6.80;;
8060;SDS011;4073;42.626;25.386;2022-07-24T10:04:59;9.40;;;6.13;;
8060;SDS011;4073;42.626;25.386;2022-07-24T10:07:26;6.93;;;6.23;;
8060;SDS011;4073;42.626;25.386;2022-07-24T10:09:53;7.47;;;6.23;;
8060;SDS011;4073;42.626;25.386;2022-07-24T10:12:25;6.37;;;5.57;;
8060;SDS011;4073;42.626;25.386;2022-07-24T10:14:55;11.17;;;6.93;;
8060;SDS011;4073;42.626;25.386;2022-07-24T10:17:26;9.80;;;5.83;;
8060;SDS011;4073;42.626;25.386;2022-07-24T10:20:11;7.13;;;5.87;;
8060;SDS011;4073;42.626;25.386;2022-07-24T10:23:09;6.80;;;6.13;;
8060;SDS011;4073;42.626;25.386;2022-07-24T10:25:46;13.73;;;7.00;;
8060;SDS011;4073;42.626;25.386;2022-07-24T10:28:21;8.13;;;6.60;;
8060;SDS011;4073;42.626;25.386;2022-07-24T10:31:04;7.43;;;6.00;;
8060;SDS011;4073;42.626;25.386;2022-07-24T10:33:31;12.10;;;6.17;;
8060;SDS011;4073;42.626;25.386;2022-07-24T10:35:58;10.63;;;6.73;;
8060;SDS011;4073;42.626;25.386;2022-07-24T10:38:29;6.23;;;5.73;;
8060;SDS011;4073;42.626;25.386;2022-07-24T10:41:02;14.30;;;6.80;;
8060;SDS011;4073;42.626;25.386;2022-07-24T10:43:34;7.33;;;6.53;;
8060;SDS011;4073;42.626;25.386;2022-07-24T10:48:25;7.67;;;6.87;;
8060;SDS011;4073;42.626;25.386;2022-07-24T10:53:24;10.47;;;7.10;;
8060;SDS011;4073;42.626;25.386;2022-07-24T10:55:50;7.37;;;6.27;;
8060;SDS011;4073;42.626;25.386;2022-07-24T10:58:16;10.47;;;6.97;;
8060;SDS011;4073;42.626;25.386;2022-07-24T11:00:46;7.57;;;6.90;;
8060;SDS011;4073;42.626;25.386;2022-07-24T11:03:23;11.07;;;6.83;;
8060;SDS011;4073;42.626;25.386;2022-07-24T11:06:07;6.67;;;6.03;;
8060;SDS011;4073;42.626;25.386;2022-07-24T11:08:37;7.43;;;6.70;;
8060;SDS011;4073;42.626;25.386;2022-07-24T11:11:16;7.20;;;6.50;;
8060;SDS011;4073;42.626;25.386;2022-07-24T11:13:54;8.63;;;6.70;;
8060;SDS011;4073;42.626;25.386;2022-07-24T11:16:30;8.17;;;6.60;;
8060;SDS011;4073;42.626;25.386;2022-07-24T11:21:29;7.40;;;6.63;;
8060;SDS011;4073;42.626;25.386;2022-07-24T11:24:13;7.47;;;6.80;;
8060;SDS011;4073;42.626;25.386;2022-07-24T11:26:52;7.53;;;6.83;;
8060;SDS011;4073;42.626;25.386;2022-07-24T11:29:19;10.03;;;7.53;;
8060;SDS011;4073;42.626;25.386;2022-07-24T11:31:47;7.97;;;6.90;;
8060;SDS011;4073;42.626;25.386;2022-07-24T11:34:14;7.47;;;6.87;;
8060;SDS011;4073;42.626;25.386;2022-07-24T11:36:41;7.87;;;6.07;;
8060;SDS011;4073;42.626;25.386;2022-07-24T11:39:08;8.37;;;7.37;;
8060;SDS011;4073;42.626;25.386;2022-07-24T11:44:21;10.80;;;7.63;;
8060;SDS011;4073;42.626;25.386;2022-07-24T11:46:48;7.67;;;6.87;;
8060;SDS011;4073;42.626;25.386;2022-07-24T11:49:14;20.63;;;16.07;;
8060;SDS011;4073;42.626;25.386;2022-07-24T11:51:43;18.33;;;8.40;;
8060;SDS011;4073;42.626;25.386;2022-07-24T11:54:14;22.63;;;8.30;;
8060;SDS011;4073;42.626;25.386;2022-07-24T11:56:46;41.17;;;12.33;;
8060;SDS011;4073;42.626;25.386;2022-07-24T11:59:23;7.10;;;6.40;;
8060;SDS011;4073;42.626;25.386;2022-07-24T12:01:56;7.80;;;7.20;;
8060;SDS011;4073;42.626;25.386;2022-07-24T12:04:28;7.80;;;6.40;;
8060;SDS011;4073;42.626;25.386;2022-07-24T12:06:54;7.70;;;6.83;;
8060;SDS011;4073;42.626;25.386;2022-07-24T12:09:19;11.83;;;9.20;;
8060;SDS011;4073;42.626;25.386;2022-07-24T12:11:45;9.53;;;7.47;;
8060;SDS011;4073;42.626;25.386;2022-07-24T12:14:16;13.53;;;7.90;;
8060;SDS011;4073;42.626;25.386;2022-07-24T12:16:43;9.57;;;6.93;;
8060;SDS011;4073;42.626;25.386;2022-07-24T12:19:17;14.33;;;7.73;;
8060;SDS011;4073;42.626;25.386;2022-07-24T12:21:44;9.17;;;6.73;;
8060;SDS011;4073;42.626;25.386;2022-07-24T12:24:12;12.23;;;7.50;;
8060;SDS011;4073;42.626;25.386;2022-07-24T12:26:50;8.10;;;7.10;;
8060;SDS011;4073;42.626;25.386;2022-07-24T12:29:20;7.83;;;7.07;;
8060;SDS011;4073;42.626;25.386;2022-07-24T12:31:47;10.77;;;7.60;;
8060;SDS011;4073;42.626;25.386;2022-07-24T12:34:14;7.73;;;6.77;;
8060;SDS011;4073;42.626;25.386;2022-07-24T12:36:40;7.80;;;6.53;;
8060;SDS011;4073;42.626;25.386;2022-07-24T12:39:06;9.57;;;7.10;;
8060;SDS011;4073;42.626;25.386;2022-07-24T12:41:40;10.03;;;7.30;;
8060;SDS011;4073;42.626;25.386;2022-07-24T12:44:07;10.07;;;8.47;;
8060;SDS011;4073;42.626;25.386;2022-07-24T12:46:34;7.60;;;6.80;;
8060;SDS011;4073;42.626;25.386;2022-07-24T12:49:06;9.83;;;7.20;;
8060;SDS011;4073;42.626;25.386;2022-07-24T12:54:15;7.73;;;6.50;;
8060;SDS011;4073;42.626;25.386;2022-07-24T12:56:43;9.70;;;6.30;;
8060;SDS011;4073;42.626;25.386;2022-07-24T12:59:08;6.57;;;6.07;;
8060;SDS011;4073;42.626;25.386;2022-07-24T13:01:44;6.73;;;6.03;;
8060;SDS011;4073;42.626;25.386;2022-07-24T13:04:15;7.53;;;6.83;;
8060;SDS011;4073;42.626;25.386;2022-07-24T13:06:43;12.23;;;6.47;;
8060;SDS011;4073;42.626;25.386;2022-07-24T13:09:13;10.93;;;6.93;;
8060;SDS011;4073;42.626;25.386;2022-07-24T13:11:41;9.97;;;6.67;;
8060;SDS011;4073;42.626;25.386;2022-07-24T13:14:07;7.43;;;6.53;;
8060;SDS011;4073;42.626;25.386;2022-07-24T13:16:35;14.70;;;8.13;;
8060;SDS011;4073;42.626;25.386;2022-07-24T13:19:03;8.47;;;5.90;;
8060;SDS011;4073;42.626;25.386;2022-07-24T13:21:30;7.30;;;6.53;;
8060;SDS011;4073;42.626;25.386;2022-07-24T13:23:55;8.43;;;6.60;;
8060;SDS011;4073;42.626;25.386;2022-07-24T13:26:21;6.50;;;5.50;;
8060;SDS011;4073;42.626;25.386;2022-07-24T13:28:47;9.87;;;6.63;;
8060;SDS011;4073;42.626;25.386;2022-07-24T13:31:13;7.40;;;6.20;;
8060;SDS011;4073;42.626;25.386;2022-07-24T13:33:39;6.77;;;6.10;;
8060;SDS011;4073;42.626;25.386;2022-07-24T13:36:05;9.07;;;6.40;;
8060;SDS011;4073;42.626;25.386;2022-07-24T13:38:30;9.93;;;7.30;;
8060;SDS011;4073;42.626;25.386;2022-07-24T13:40:56;7.57;;;6.30;;
8060;SDS011;4073;42.626;25.386;2022-07-24T13:43:22;7.80;;;6.60;;
8060;SDS011;4073;42.626;25.386;2022-07-24T13:45:47;8.20;;;6.30;;
8060;SDS011;4073;42.626;25.386;2022-07-24T13:48:13;6.27;;;5.67;;
8060;SDS011;4073;42.626;25.386;2022-07-24T13:50:38;9.60;;;6.20;;
8060;SDS011;4073;42.626;25.386;2022-07-24T13:53:04;9.10;;;7.10;;
8060;SDS011;4073;42.626;25.386;2022-07-24T13:55:30;7.10;;;5.77;;
8060;SDS011;4073;42.626;25.386;2022-07-24T13:57:57;8.93;;;6.23;;
8060;SDS011;4073;42.626;25.386;2022-07-24T14:00:22;7.93;;;5.77;;
8060;SDS011;4073;42.626;25.386;2022-07-24T14:02:49;6.93;;;6.13;;
8060;SDS011;4073;42.626;25.386;2022-07-24T14:05:15;13.87;;;7.07;;
8060;SDS011;4073;42.626;25.386;2022-07-24T14:07:41;7.47;;;6.77;;
8060;SDS011;4073;42.626;25.386;2022-07-24T14:10:06;8.07;;;6.80;;
8060;SDS011;4073;42.626;25.386;2022-07-24T14:12:32;11.27;;;6.33;;
8060;SDS011;4073;42.626;25.386;2022-07-24T14:14:58;10.97;;;6.87;;
8060;SDS011;4073;42.626;25.386;2022-07-24T14:17:23;8.13;;;6.53;;
8060;SDS011;4073;42.626;25.386;2022-07-24T14:19:49;7.60;;;6.83;;
8060;SDS011;4073;42.626;25.386;2022-07-24T14:22:14;8.73;;;6.77;;
8060;SDS011;4073;42.626;25.386;2022-07-24T14:24:39;7.10;;;6.40;;
8060;SDS011;4073;42.626;25.386;2022-07-24T14:27:05;8.53;;;7.13;;
8060;SDS011;4073;42.626;25.386;2022-07-24T14:29:30;8.70;;;6.93;;
8060;SDS011;4073;42.626;25.386;2022-07-24T14:31:56;10.93;;;7.23;;
8060;SDS011;4073;42.626;25.386;2022-07-24T14:34:21;11.53;;;8.10;;
8060;SDS011;4073;42.626;25.386;2022-07-24T14:36:47;9.73;;;7.70;;
8060;SDS011;4073;42.626;25.386;2022-07-24T14:39:12;8.10;;;7.30;;
8060;SDS011;4073;42.626;25.386;2022-07-24T14:41:38;7.87;;;7.10;;
8060;SDS011;4073;42.626;25.386;2022-07-24T14:44:04;8.00;;;6.87;;
8060;SDS011;4073;42.626;25.386;2022-07-24T14:46:30;7.90;;;6.90;;
8060;SDS011;4073;42.626;25.386;2022-07-24T14:48:56;7.37;;;6.53;;
8060;SDS011;4073;42.626;25.386;2022-07-24T14:51:21;11.00;;;6.77;;
8060;SDS011;4073;42.626;25.386;2022-07-24T14:53:47;8.17;;;7.47;;
8060;SDS011;4073;42.626;25.386;2022-07-24T14:56:12;8.13;;;7.43;;
8060;SDS011;4073;42.626;25.386;2022-07-24T14:58:38;8.50;;;6.73;;
8060;SDS011;4073;42.626;25.386;2022-07-24T15:01:04;8.37;;;7.67;;
8060;SDS011;4073;42.626;25.386;2022-07-24T15:03:29;8.37;;;7.67;;
8060;SDS011;4073;42.626;25.386;2022-07-24T15:05:55;8.50;;;7.60;;
8060;SDS011;4073;42.626;25.386;2022-07-24T15:08:20;9.30;;;8.40;;
8060;SDS011;4073;42.626;25.386;2022-07-24T15:10:45;9.03;;;8.13;;
8060;SDS011;4073;42.626;25.386;2022-07-24T15:13:11;9.33;;;7.63;;
8060;SDS011;4073;42.626;25.386;2022-07-24T15:15:36;13.53;;;8.87;;
8060;SDS011;4073;42.626;25.386;2022-07-24T15:18:02;11.73;;;8.77;;